Time;durP1;ratioP1;P1;durP2;ratioP2;P2;SDS_P1;SDS_P2;PMS_P1;PMS_P2;Temp;Humidity;BMP_temperature;BMP_pressure;BME280_temperature;BME280_humidity;BME280_pressure;Samples;Min_cycle;Max_cycle;Signal;HPM_P1;HPM_P2
2023/12/18 00:01:52;;;;;;;8.82;8.05;;;4.90;1.00;;;;;;5053759;28;20848;-78
2023/12/18 00:04:22;;;;;;;10.10;9.10;;;4.80;1.00;;;;;;5049714;28;20198;-78
2023/12/18 00:06:50;;;;;;;9.60;8.67;;;4.80;1.00;;;;;;5047001;28;21100;-78
2023/12/18 00:09:19;;;;;;;10.18;9.38;;;4.80;1.00;;;;;;5051571;28;20447;-77
2023/12/18 00:11:47;;;;;;;10.15;9.02;;;4.80;1.00;;;;;;5047465;28;20206;-78
2023/12/18 00:14:15;;;;;;;9.70;8.90;;;4.70;1.00;;;;;;5049415;28;20199;-78
2023/12/18 00:16:44;;;;;;;10.47;9.37;;;4.70;1.00;;;;;;5046296;28;20212;-78
2023/12/18 00:19:12;;;;;;;9.77;8.95;;;4.80;1.00;;;;;;5049683;28;20475;-78
2023/12/18 00:21:42;;;;;;;8.73;7.93;;;4.80;1.00;;;;;;5048167;28;20197;-77
2023/12/18 00:24:10;;;;;;;8.53;7.70;;;4.80;1.00;;;;;;5050456;28;20201;-78
2023/12/18 00:26:38;;;;;;;9.90;9.02;;;4.80;1.00;;;;;;5048199;28;20451;-78
2023/12/18 00:29:06;;;;;;;8.65;7.85;;;4.70;1.00;;;;;;5053659;28;20594;-78
2023/12/18 00:31:34;;;;;;;8.95;8.25;;;4.60;1.00;;;;;;5049137;28;20197;-78
2023/12/18 00:34:02;;;;;;;8.82;8.05;;;4.50;1.00;;;;;;5043539;28;20197;-78
2023/12/18 00:36:31;;;;;;;9.48;8.68;;;4.40;1.00;;;;;;5050249;28;20205;-78
2023/12/18 00:39:00;;;;;;;8.88;7.97;;;4.40;1.00;;;;;;5047920;28;20213;-78
2023/12/18 00:41:29;;;;;;;8.50;7.85;;;4.40;1.00;;;;;;5049021;28;20299;-78
2023/12/18 00:43:57;;;;;;;7.90;7.10;;;4.30;1.00;;;;;;5049215;28;20217;-78
2023/12/18 00:46:27;;;;;;;7.28;6.60;;;4.50;25.90;;;;;;5047400;28;20268;-78
2023/12/18 00:48:55;;;;;;;5.95;5.55;;;4.60;98.70;;;;;;5049979;28;20839;-78
2023/12/18 00:51:24;;;;;;;6.90;6.32;;;4.70;99.90;;;;;;5049669;28;20270;-78
2023/12/18 00:53:52;;;;;;;5.73;5.27;;;4.80;90.70;;;;;;5047566;28;20308;-79
2023/12/18 00:56:22;;;;;;;5.60;5.10;;;4.90;32.80;;;;;;5040913;28;20484;-78
2023/12/18 00:58:50;;;;;;;6.20;5.70;;;5.10;1.00;;;;;;5048603;28;20292;-78
2023/12/18 01:01:18;;;;;;;5.37;4.87;;;5.20;1.00;;;;;;5047543;28;21004;-79
2023/12/18 01:03:46;;;;;;;5.37;4.90;;;5.40;1.00;;;;;;5050872;28;20470;-77
2023/12/18 01:06:15;;;;;;;5.25;4.88;;;5.50;1.00;;;;;;5049289;28;20466;-77
2023/12/18 01:08:43;;;;;;;4.23;4.03;;;5.50;1.00;;;;;;5051512;28;20289;-77
2023/12/18 01:11:11;;;;;;;4.60;4.20;;;5.60;1.00;;;;;;5049161;28;20478;-78
2023/12/18 01:13:40;;;;;;;5.27;4.87;;;5.60;1.00;;;;;;5049265;28;20468;-78
2023/12/18 01:16:09;;;;;;;4.60;4.40;;;5.60;99.90;;;;;;5036584;28;21467;-77
2023/12/18 01:18:37;;;;;;;4.03;3.83;;;5.50;99.90;;;;;;5048775;28;20482;-76
2023/12/18 01:21:05;;;;;;;4.30;4.00;;;5.60;99.90;;;;;;5048485;28;20467;-77
2023/12/18 01:23:34;;;;;;;4.30;4.00;;;5.50;99.90;;;;;;5048783;28;20540;-77
2023/12/18 01:26:02;;;;;;;4.40;4.10;;;5.60;99.90;;;;;;5051856;28;20460;-78
2023/12/18 01:28:30;;;;;;;4.00;3.77;;;5.60;99.90;;;;;;5048484;28;21165;-77
2023/12/18 01:31:00;;;;;;;4.13;3.93;;;5.60;99.90;;;;;;5049628;28;20460;-77
2023/12/18 01:33:28;;;;;;;4.10;3.90;;;5.60;99.90;;;;;;5050576;28;20475;-76
2023/12/18 01:35:56;;;;;;;4.30;4.07;;;5.60;99.90;;;;;;5049227;28;20451;-77
2023/12/18 01:38:24;;;;;;;4.20;3.93;;;5.60;99.90;;;;;;5050145;28;20466;-77
2023/12/18 01:40:53;;;;;;;4.30;4.03;;;5.60;99.90;;;;;;5048053;28;20498;-77
2023/12/18 01:43:25;;;;;;;4.10;3.90;;;5.60;99.90;;;;;;5049102;28;20477;-78
2023/12/18 01:45:58;;;;;;;3.63;3.40;;;5.60;99.90;;;;;;5049798;28;20460;-77
2023/12/18 01:48:29;;;;;;;4.60;4.30;;;5.50;99.90;;;;;;5048804;28;20444;-77
2023/12/18 01:50:59;;;;;;;3.90;3.70;;;5.40;99.90;;;;;;5050659;28;20458;-76
2023/12/18 01:53:32;;;;;;;3.80;3.53;;;5.30;99.90;;;;;;5049464;28;20817;-76
2023/12/18 01:56:01;;;;;;;4.03;3.77;;;5.30;99.90;;;;;;5043669;28;20458;-78
2023/12/18 01:58:31;;;;;;;4.27;4.07;;;5.40;99.90;;;;;;5049096;28;20455;-76
2023/12/18 02:01:00;;;;;;;5.17;4.60;;;5.50;99.90;;;;;;5047471;28;20592;-77
2023/12/18 02:03:34;;;;;;;5.50;5.10;;;5.40;99.90;;;;;;5046068;28;20475;-77
2023/12/18 02:06:05;;;;;;;4.50;4.10;;;5.20;99.90;;;;;;5051784;28;20451;-77
2023/12/18 02:08:35;;;;;;;4.60;4.27;;;5.10;99.90;;;;;;5053058;28;20462;-76
2023/12/18 02:11:04;;;;;;;4.63;4.20;;;5.20;99.90;;;;;;5052557;28;20664;-77
2023/12/18 02:13:32;;;;;;;5.30;4.90;;;5.30;99.90;;;;;;5047459;28;21334;-77
2023/12/18 02:16:00;;;;;;;5.43;5.03;;;5.10;99.90;;;;;;5055263;28;20500;-77
2023/12/18 02:18:29;;;;;;;5.27;4.87;;;5.10;99.90;;;;;;5052858;28;20316;-78
2023/12/18 02:20:58;;;;;;;6.13;5.63;;;4.90;99.90;;;;;;5049479;28;20475;-78
2023/12/18 02:23:28;;;;;;;5.67;5.20;;;4.90;99.90;;;;;;5051100;28;21053;-77
2023/12/18 02:25:56;;;;;;;5.70;5.28;;;4.80;99.90;;;;;;5049187;28;21066;-78
2023/12/18 02:28:25;;;;;;;5.50;5.10;;;4.70;99.90;;;;;;5045340;28;20288;-77
2023/12/18 02:30:54;;;;;;;5.80;5.30;;;4.60;99.90;;;;;;5053745;28;20451;-78
2023/12/18 02:33:22;;;;;;;6.60;6.00;;;4.60;99.90;;;;;;5051836;28;20778;-78
2023/12/18 02:35:51;;;;;;;6.20;5.63;;;4.50;99.90;;;;;;5051127;28;20555;-78
2023/12/18 02:38:19;;;;;;;7.30;6.60;;;4.40;99.90;;;;;;5051020;28;20201;-79
2023/12/18 02:40:48;;;;;;;6.35;5.93;;;4.40;99.90;;;;;;5052837;28;20217;-80
2023/12/18 02:43:17;;;;;;;6.72;6.13;;;4.50;99.90;;;;;;5051820;28;20245;-78
2023/12/18 02:45:45;;;;;;;6.95;6.45;;;4.30;1.00;;;;;;5052076;28;20205;-78
2023/12/18 02:48:13;;;;;;;6.97;6.38;;;4.40;1.00;;;;;;5047620;28;21989;-78
2023/12/18 02:50:42;;;;;;;7.47;7.05;;;4.40;1.00;;;;;;5040162;28;22322;-78
2023/12/18 02:53:10;;;;;;;7.30;6.70;;;4.30;1.00;;;;;;5052785;28;20758;-78
2023/12/18 02:55:38;;;;;;;7.10;6.60;;;4.30;1.00;;;;;;5050138;28;20205;-78
2023/12/18 02:58:07;;;;;;;6.85;6.45;;;4.40;1.00;;;;;;5051324;28;21229;-78
2023/12/18 03:00:36;;;;;;;6.38;5.72;;;4.30;1.00;;;;;;5051173;28;20699;-78
2023/12/18 03:03:04;;;;;;;8.27;6.40;;;4.30;1.00;;;;;;5050165;28;20295;-78
2023/12/18 03:05:32;;;;;;;7.13;6.13;;;4.30;1.00;;;;;;5051323;28;20557;-77
2023/12/18 03:08:01;;;;;;;4.40;4.20;;;4.30;1.00;;;;;;5048952;28;20247;-77
2023/12/18 03:10:29;;;;;;;5.57;5.15;;;4.30;1.00;;;;;;5049694;28;20197;-77
2023/12/18 03:12:57;;;;;;;6.95;5.50;;;4.30;1.00;;;;;;5053390;28;20227;-77
2023/12/18 03:15:27;;;;;;;5.70;5.40;;;4.30;1.00;;;;;;5048754;28;20201;-77
2023/12/18 03:17:55;;;;;;;6.63;6.15;;;4.30;1.00;;;;;;5051609;28;20473;-78
2023/12/18 03:20:23;;;;;;;5.18;4.75;;;4.30;1.00;;;;;;5045302;28;20207;-77
2023/12/18 03:22:51;;;;;;;4.88;4.57;;;4.40;1.00;;;;;;5052789;28;20240;-77
2023/12/18 03:25:20;;;;;;;4.32;4.10;;;4.40;1.00;;;;;;5054440;28;20197;-77
2023/12/18 03:27:48;;;;;;;5.45;5.00;;;4.50;1.00;;;;;;5049208;28;20740;-77
2023/12/18 03:30:16;;;;;;;5.20;4.90;;;4.50;1.00;;;;;;5055139;28;20197;-77
2023/12/18 03:32:46;;;;;;;5.43;5.03;;;4.40;1.00;;;;;;5049808;28;20259;-77
2023/12/18 03:35:14;;;;;;;6.78;6.22;;;4.40;1.00;;;;;;5048735;28;20655;-77
2023/12/18 03:37:42;;;;;;;5.10;4.80;;;4.30;1.00;;;;;;5052771;28;20208;-77
2023/12/18 03:40:11;;;;;;;5.15;4.75;;;4.20;1.00;;;;;;5051767;28;20943;-78
2023/12/18 03:42:41;;;;;;;6.18;5.75;;;4.20;1.00;;;;;;5047776;28;20218;-77
2023/12/18 03:45:10;;;;;;;5.85;5.35;;;4.30;1.00;;;;;;5052461;28;20198;-77
2023/12/18 03:47:38;;;;;;;5.60;5.10;;;4.30;1.00;;;;;;5052835;28;20292;-77
2023/12/18 03:50:10;;;;;;;4.70;4.35;;;4.20;1.00;;;;;;5050925;28;20204;-76
2023/12/18 03:52:38;;;;;;;5.20;4.90;;;4.20;1.00;;;;;;5041017;28;20229;-77
2023/12/18 03:55:07;;;;;;;4.95;4.65;;;4.20;1.00;;;;;;5048350;28;20201;-78
2023/12/18 03:57:35;;;;;;;5.60;5.18;;;4.00;1.00;;;;;;5046823;28;20205;-77
2023/12/18 04:00:04;;;;;;;5.53;5.00;;;4.10;1.00;;;;;;5050099;28;20666;-78
2023/12/18 04:02:32;;;;;;;5.05;4.68;;;4.10;1.00;;;;;;5051315;28;20763;-78
2023/12/18 04:05:00;;;;;;;5.55;5.18;;;4.00;1.00;;;;;;5050654;28;20198;-78
2023/12/18 04:07:30;;;;;;;5.05;4.75;;;3.90;1.00;;;;;;5048868;28;20275;-78
2023/12/18 04:09:58;;;;;;;4.70;4.30;;;3.90;1.00;;;;;;5053942;28;20303;-77
2023/12/18 04:12:26;;;;;;;6.13;5.57;;;3.90;1.00;;;;;;5050764;28;20675;-77
2023/12/18 04:14:55;;;;;;;5.63;5.20;;;3.90;1.00;;;;;;5042628;28;20697;-77
2023/12/18 04:17:23;;;;;;;6.10;5.60;;;3.90;1.00;;;;;;5042694;28;20304;-77
2023/12/18 04:19:51;;;;;;;4.90;4.60;;;3.90;1.00;;;;;;5045610;28;21143;-76
2023/12/18 04:22:19;;;;;;;6.00;5.50;;;3.90;1.00;;;;;;5047871;28;20226;-77
2023/12/18 04:24:49;;;;;;;4.18;3.97;;;3.90;1.00;;;;;;5051062;28;20236;-79
2023/12/18 04:27:17;;;;;;;6.10;5.50;;;3.90;1.00;;;;;;5047712;28;20233;-78
2023/12/18 04:29:45;;;;;;;5.25;4.85;;;4.00;1.00;;;;;;5048929;28;20197;-77
2023/12/18 04:32:13;;;;;;;5.90;5.40;;;4.00;1.00;;;;;;5052899;28;20208;-77
2023/12/18 04:34:41;;;;;;;4.97;4.68;;;4.00;1.00;;;;;;5044748;28;20263;-78
2023/12/18 04:37:10;;;;;;;5.30;4.82;;;4.00;1.00;;;;;;5049346;28;20227;-77
2023/12/18 04:39:38;;;;;;;5.03;4.63;;;3.90;1.00;;;;;;5049081;28;20286;-76
2023/12/18 04:42:08;;;;;;;5.30;4.90;;;3.90;1.00;;;;;;5052115;28;20224;-79
2023/12/18 04:44:36;;;;;;;4.30;3.90;;;4.00;1.00;;;;;;5047861;28;20233;-78
2023/12/18 04:47:04;;;;;;;5.20;4.80;;;4.00;1.00;;;;;;5049891;28;20205;-78
2023/12/18 04:49:32;;;;;;;5.40;5.00;;;3.90;1.00;;;;;;5049418;28;20651;-79
2023/12/18 04:52:01;;;;;;;6.45;5.95;;;3.80;1.00;;;;;;5048427;28;20702;-77
2023/12/18 04:54:29;;;;;;;5.40;4.95;;;3.80;1.00;;;;;;5039404;28;20194;-77
2023/12/18 04:56:57;;;;;;;5.82;5.43;;;3.80;1.00;;;;;;5047746;28;20289;-77
2023/12/18 04:59:27;;;;;;;5.80;5.50;;;3.90;1.00;;;;;;5044861;28;21673;-78
2023/12/18 05:01:55;;;;;;;5.15;4.72;;;4.00;1.00;;;;;;5039322;28;20214;-78
2023/12/18 05:04:24;;;;;;;6.25;5.85;;;3.90;1.00;;;;;;5049530;28;20682;-78
2023/12/18 05:06:52;;;;;;;5.75;5.35;;;3.90;1.00;;;;;;5048530;28;20205;-79
2023/12/18 05:09:20;;;;;;;5.50;5.05;;;3.90;1.00;;;;;;5050047;28;20204;-83
2023/12/18 05:11:49;;;;;;;5.80;5.20;;;3.90;1.00;;;;;;5050405;28;20192;-77
2023/12/18 05:14:17;;;;;;;6.18;5.68;;;3.90;1.00;;;;;;5051609;28;20213;-78
2023/12/18 05:16:47;;;;;;;5.00;4.70;;;3.70;1.00;;;;;;5050792;28;20208;-78
2023/12/18 05:19:15;;;;;;;5.20;4.30;;;3.80;1.00;;;;;;5049419;28;20198;-78
2023/12/18 05:21:43;;;;;;;5.18;4.80;;;3.90;1.00;;;;;;5043514;28;20197;-78
2023/12/18 05:24:11;;;;;;;6.43;5.82;;;3.90;1.00;;;;;;5049456;28;20283;-78
2023/12/18 05:26:40;;;;;;;5.40;5.10;;;3.90;1.00;;;;;;5045287;28;20206;-77
2023/12/18 05:29:08;;;;;;;4.82;4.53;;;3.80;1.00;;;;;;5048202;28;20275;-77
2023/12/18 05:31:36;;;;;;;5.95;5.55;;;3.80;1.00;;;;;;5043658;28;20212;-77
2023/12/18 05:34:06;;;;;;;5.28;4.82;;;3.70;1.00;;;;;;5052833;28;20210;-76
2023/12/18 05:36:34;;;;;;;6.40;5.32;;;3.80;1.00;;;;;;5050691;28;20247;-77
2023/12/18 05:39:02;;;;;;;4.90;4.60;;;3.80;1.00;;;;;;5054110;28;20297;-76
2023/12/18 05:41:31;;;;;;;5.00;4.70;;;3.80;1.00;;;;;;5054217;28;20204;-76
2023/12/18 05:43:59;;;;;;;5.70;5.30;;;3.90;1.00;;;;;;5046789;28;20829;-76
2023/12/18 05:46:27;;;;;;;5.07;4.63;;;3.90;1.00;;;;;;5042781;28;20198;-76
2023/12/18 05:48:55;;;;;;;5.72;5.43;;;4.00;1.00;;;;;;5056807;28;20196;-77
2023/12/18 05:51:25;;;;;;;5.55;5.05;;;4.00;1.00;;;;;;5049613;28;20366;-75
2023/12/18 05:53:53;;;;;;;5.30;4.90;;;3.90;1.00;;;;;;5045071;28;20315;-76
2023/12/18 05:56:21;;;;;;;5.32;4.93;;;3.90;1.00;;;;;;5051428;28;20232;-76
2023/12/18 05:58:49;;;;;;;5.68;5.18;;;3.90;1.00;;;;;;5055751;28;20198;-76
2023/12/18 06:01:19;;;;;;;4.65;4.25;;;3.80;1.00;;;;;;5047169;28;20360;-77
2023/12/18 06:03:48;;;;;;;5.40;4.97;;;3.90;1.00;;;;;;5045846;28;20205;-76
2023/12/18 06:06:16;;;;;;;5.53;5.18;;;3.90;1.00;;;;;;5056954;28;20224;-76
2023/12/18 06:08:46;;;;;;;5.40;5.00;;;3.90;1.00;;;;;;5054419;28;20198;-77
2023/12/18 06:11:15;;;;;;;5.70;5.40;;;3.90;1.00;;;;;;5056919;28;20197;-75
2023/12/18 06:13:43;;;;;;;5.20;4.90;;;3.80;1.00;;;;;;5053334;28;20228;-76
2023/12/18 06:16:11;;;;;;;5.82;5.25;;;3.80;1.00;;;;;;5053866;28;20296;-78
2023/12/18 06:18:40;;;;;;;5.30;4.90;;;3.90;1.00;;;;;;5052280;28;20279;-75
2023/12/18 06:21:08;;;;;;;4.82;4.53;;;3.90;1.00;;;;;;5048884;28;20197;-78
2023/12/18 06:23:36;;;;;;;4.60;4.30;;;3.80;1.00;;;;;;5053906;28;20217;-76
2023/12/18 06:26:06;;;;;;;5.55;5.07;;;3.80;1.00;;;;;;5051812;28;20248;-76
2023/12/18 06:28:34;;;;;;;5.50;5.10;;;3.80;1.00;;;;;;5052104;28;20450;-76
2023/12/18 06:31:02;;;;;;;6.25;5.80;;;3.60;1.00;;;;;;5054083;28;20208;-78
2023/12/18 06:33:30;;;;;;;5.10;4.80;;;3.70;1.00;;;;;;5047513;28;20214;-76
2023/12/18 06:35:59;;;;;;;5.32;5.03;;;3.80;1.00;;;;;;5046275;28;20217;-77
2023/12/18 06:38:27;;;;;;;5.35;4.93;;;3.80;1.00;;;;;;5052695;28;20201;-76
2023/12/18 06:40:56;;;;;;;6.10;5.60;;;3.80;1.00;;;;;;5057875;28;20209;-78
2023/12/18 06:43:25;;;;;;;6.13;5.68;;;3.80;1.00;;;;;;5052126;28;20226;-76
2023/12/18 06:45:54;;;;;;;5.90;5.50;;;3.70;1.00;;;;;;5051704;28;20209;-77
2023/12/18 06:48:22;;;;;;;5.50;5.10;;;3.70;1.00;;;;;;5052376;28;20205;-76
2023/12/18 06:50:50;;;;;;;4.80;4.50;;;3.80;1.00;;;;;;5050495;28;20265;-76
2023/12/18 06:53:18;;;;;;;4.50;4.20;;;3.70;1.00;;;;;;5052012;28;20643;-76
2023/12/18 06:55:47;;;;;;;4.75;4.45;;;3.70;1.00;;;;;;5048188;28;21312;-76
2023/12/18 06:58:15;;;;;;;5.68;5.28;;;3.70;1.00;;;;;;5055751;28;20595;-76
2023/12/18 07:00:45;;;;;;;5.75;5.35;;;3.70;1.00;;;;;;5051645;28;20202;-76
2023/12/18 07:03:13;;;;;;;5.18;4.78;;;3.70;1.00;;;;;;5051951;28;20228;-76
2023/12/18 07:05:43;;;;;;;5.60;5.30;;;3.70;1.00;;;;;;5055392;28;20240;-76
2023/12/18 07:08:11;;;;;;;6.05;5.57;;;3.80;1.00;;;;;;5053483;28;20204;-76
2023/12/18 07:10:40;;;;;;;5.63;5.20;;;3.90;1.00;;;;;;5054102;28;20279;-74
2023/12/18 07:13:08;;;;;;;5.28;4.78;;;3.80;1.00;;;;;;5055660;28;20220;-76
2023/12/18 07:15:36;;;;;;;5.13;4.72;;;3.80;1.00;;;;;;5057226;28;20311;-76
2023/12/18 07:18:07;;;;;;;6.47;5.97;;;3.80;1.00;;;;;;5055646;28;20209;-77
2023/12/18 07:20:36;;;;;;;6.38;5.30;;;3.80;1.00;;;;;;5056101;28;20207;-75
2023/12/18 07:23:04;;;;;;;6.85;4.82;;;3.80;1.00;;;;;;5053693;28;20345;-76
2023/12/18 07:25:32;;;;;;;5.82;5.30;;;3.70;1.00;;;;;;5053955;28;20213;-76
2023/12/18 07:28:00;;;;;;;5.63;5.18;;;3.80;1.00;;;;;;5055499;28;20213;-76
2023/12/18 07:30:29;;;;;;;5.80;5.40;;;3.80;1.00;;;;;;5054324;28;20190;-76
2023/12/18 07:32:57;;;;;;;5.85;5.30;;;3.80;1.00;;;;;;5056234;28;20225;-76
2023/12/18 07:35:27;;;;;;;5.35;4.93;;;3.90;1.00;;;;;;5047592;28;20587;-76
2023/12/18 07:37:55;;;;;;;5.82;5.32;;;3.70;1.00;;;;;;5049427;28;20738;-76
2023/12/18 07:40:23;;;;;;;5.55;5.05;;;3.70;1.00;;;;;;5055293;28;20197;-76
2023/12/18 07:42:51;;;;;;;4.50;4.20;;;3.80;1.00;;;;;;5055366;28;20225;-76
2023/12/18 07:45:20;;;;;;;4.80;4.50;;;3.80;1.00;;;;;;5052772;28;20215;-77
2023/12/18 07:47:48;;;;;;;4.15;3.90;;;3.90;1.00;;;;;;5049253;28;20194;-76
2023/12/18 07:50:16;;;;;;;4.70;4.50;;;3.90;1.00;;;;;;5054192;28;20279;-77
2023/12/18 07:52:46;;;;;;;5.22;4.47;;;4.00;1.00;;;;;;5054637;28;20474;-75
2023/12/18 07:55:14;;;;;;;5.97;5.57;;;4.00;1.00;;;;;;5049177;28;20288;-76
2023/12/18 07:57:43;;;;;;;6.10;5.70;;;3.90;1.00;;;;;;5050200;28;20515;-75
2023/12/18 08:00:13;;;;;;;5.40;5.00;;;3.90;1.00;;;;;;5050661;28;20200;-76
2023/12/18 08:02:42;;;;;;;5.15;4.75;;;3.90;1.00;;;;;;5047648;28;20942;-77
2023/12/18 08:05:11;;;;;;;5.20;4.80;;;3.90;1.00;;;;;;5051909;28;20210;-76
2023/12/18 08:07:40;;;;;;;6.53;6.03;;;4.00;1.00;;;;;;5043430;28;20643;-78
2023/12/18 08:10:10;;;;;;;5.75;5.25;;;3.90;1.00;;;;;;5050726;28;20193;-77
2023/12/18 08:12:38;;;;;;;4.95;4.63;;;3.90;1.00;;;;;;5051807;28;20220;-77
2023/12/18 08:15:08;;;;;;;4.30;4.03;;;4.00;1.00;;;;;;5052228;28;21290;-77
2023/12/18 08:17:39;;;;;;;4.80;4.40;;;4.10;1.00;;;;;;5046784;28;20237;-77
2023/12/18 08:20:09;;;;;;;5.55;5.00;;;4.30;1.00;;;;;;5051146;28;20209;-76
2023/12/18 08:22:37;;;;;;;4.30;3.90;;;4.40;1.00;;;;;;5040199;28;20245;-77
2023/12/18 08:25:06;;;;;;;4.90;4.50;;;4.60;1.00;;;;;;5035946;28;20220;-76
2023/12/18 08:27:36;;;;;;;4.53;4.13;;;4.60;1.00;;;;;;5049278;28;20846;-78
2023/12/18 08:30:05;;;;;;;4.70;4.43;;;4.60;1.00;;;;;;5048428;28;20919;-77
2023/12/18 08:32:34;;;;;;;4.90;4.30;;;4.70;1.00;;;;;;5053238;28;20220;-77
2023/12/18 08:35:02;;;;;;;5.00;4.57;;;4.80;1.00;;;;;;5054134;28;20277;-77
2023/12/18 08:37:30;;;;;;;4.00;3.80;;;4.90;1.00;;;;;;5048277;28;20235;-77
2023/12/18 08:39:58;;;;;;;4.90;4.40;;;5.00;1.00;;;;;;5053827;28;20341;-77
2023/12/18 08:42:27;;;;;;;5.10;4.25;;;5.10;1.00;;;;;;5049096;28;20339;-77
2023/12/18 08:44:57;;;;;;;4.83;4.53;;;5.20;1.00;;;;;;5052396;28;20311;-77
2023/12/18 08:47:26;;;;;;;5.80;4.97;;;5.10;1.00;;;;;;5050762;28;20458;-75
2023/12/18 08:49:55;;;;;;;5.60;5.20;;;5.20;1.00;;;;;;5049669;28;20463;-76
2023/12/18 08:52:23;;;;;;;5.90;5.50;;;5.20;99.90;;;;;;5049552;28;20477;-77
2023/12/18 08:54:51;;;;;;;4.50;4.30;;;5.30;99.90;;;;;;5054550;28;20452;-77
2023/12/18 08:57:20;;;;;;;4.30;4.00;;;5.40;99.90;;;;;;5050264;28;20449;-77
2023/12/18 08:59:50;;;;;;;4.10;3.70;;;5.50;99.90;;;;;;5049764;28;20490;-77
2023/12/18 09:02:19;;;;;;;3.97;3.77;;;5.60;99.90;;;;;;5051764;28;20518;-76
2023/12/18 09:04:48;;;;;;;3.57;3.37;;;5.70;99.90;;;;;;5053589;28;20479;-77
2023/12/18 09:07:16;;;;;;;3.90;3.60;;;5.80;99.90;;;;;;5054055;28;20464;-77
2023/12/18 09:09:44;;;;;;;4.50;4.10;;;6.00;99.90;;;;;;5049356;28;20462;-77
2023/12/18 09:12:12;;;;;;;4.50;4.20;;;6.00;99.90;;;;;;5042410;28;20475;-77
2023/12/18 09:14:41;;;;;;;4.33;4.03;;;6.00;99.90;;;;;;5049473;28;20447;-78
2023/12/18 09:17:09;;;;;;;4.40;3.97;;;6.00;99.90;;;;;;5055492;28;20478;-77
2023/12/18 09:19:39;;;;;;;5.40;4.80;;;6.10;99.90;;;;;;5055544;28;20909;-78
2023/12/18 09:22:07;;;;;;;4.53;4.23;;;6.10;99.90;;;;;;5056786;28;20516;-77
2023/12/18 09:24:36;;;;;;;5.33;4.93;;;6.20;99.90;;;;;;5052182;28;20479;-77
2023/12/18 09:27:04;;;;;;;4.70;4.43;;;6.30;99.90;;;;;;5054188;28;20558;-78
2023/12/18 09:29:33;;;;;;;4.90;4.50;;;6.50;99.90;;;;;;5055051;28;20529;-78
2023/12/18 09:32:02;;;;;;;5.77;5.47;;;6.60;99.90;;;;;;5059597;28;20469;-77
2023/12/18 09:34:30;;;;;;;5.00;4.70;;;6.70;99.90;;;;;;5055371;28;20457;-78
2023/12/18 09:37:00;;;;;;;5.43;5.10;;;6.90;99.90;;;;;;5052124;28;21527;-78
2023/12/18 09:39:28;;;;;;;6.20;5.70;;;7.20;99.90;;;;;;5057887;28;20484;-78
2023/12/18 09:42:01;;;;;;;5.10;4.70;;;7.40;99.90;;;;;;5050719;28;20864;-77
2023/12/18 09:44:31;;;;;;;4.57;4.27;;;7.60;99.90;;;;;;5059931;28;20928;-76
2023/12/18 09:47:00;;;;;;;5.00;4.60;;;7.80;99.90;;;;;;5055896;28;20455;-78
2023/12/18 09:49:28;;;;;;;6.57;4.50;;;8.00;99.90;;;;;;5056295;28;20455;-77
2023/12/18 09:52:06;;;;;;;4.60;4.13;;;8.20;99.90;;;;;;5057222;28;20448;-77
2023/12/18 09:54:37;;;;;;;5.17;4.87;;;8.30;99.90;;;;;;5056813;28;20866;-76
2023/12/18 09:57:08;;;;;;;5.03;4.57;;;8.30;99.90;;;;;;5054307;28;20455;-78
2023/12/18 09:59:37;;;;;;;4.50;4.30;;;8.70;99.90;;;;;;5051366;28;20526;-77
2023/12/18 10:02:06;;;;;;;4.63;4.33;;;8.90;99.90;;;;;;5052537;28;20481;-78
2023/12/18 10:04:34;;;;;;;4.23;4.03;;;9.40;99.90;;;;;;5055340;28;20470;-78
2023/12/18 10:07:04;;;;;;;5.07;4.77;;;9.70;99.90;;;;;;5053063;28;20539;-77
2023/12/18 10:09:35;;;;;;;4.20;4.00;;;10.10;99.90;;;;;;5054933;28;20456;-77
2023/12/18 10:12:03;;;;;;;4.23;4.03;;;10.30;99.90;;;;;;5052636;28;20494;-76
2023/12/18 10:14:32;;;;;;;4.83;4.57;;;10.60;99.90;;;;;;5051820;28;21020;-77
2023/12/18 10:17:01;;;;;;;4.57;4.27;;;11.10;99.90;;;;;;5055836;28;20904;-78
2023/12/18 10:19:29;;;;;;;4.90;4.50;;;11.30;99.90;;;;;;5051940;28;20456;-77
2023/12/18 10:21:58;;;;;;;4.50;4.30;;;11.60;99.90;;;;;;5058910;28;20459;-78
2023/12/18 10:24:28;;;;;;;4.80;4.40;;;12.50;99.90;;;;;;5054007;28;20490;-78
2023/12/18 10:26:56;;;;;;;4.70;4.40;;;13.60;99.90;;;;;;5052510;28;20452;-77
2023/12/18 10:29:24;;;;;;;4.33;4.13;;;14.50;99.90;;;;;;5055902;28;20448;-78
2023/12/18 10:31:53;;;;;;;4.20;4.00;;;14.80;99.90;;;;;;5057421;28;20494;-77
2023/12/18 10:34:22;;;;;;;4.07;3.87;;;15.60;99.90;;;;;;5057936;28;20443;-80
2023/12/18 10:36:55;;;;;;;4.30;4.00;;;16.70;99.90;;;;;;5054384;28;20470;-77
2023/12/18 10:39:29;;;;;;;4.00;3.80;;;16.80;99.90;;;;;;5049901;28;20436;-77
2023/12/18 10:42:00;;;;;;;3.43;3.33;;;16.20;99.90;;;;;;5051714;28;20869;-77
2023/12/18 10:44:30;;;;;;;3.27;3.17;;;16.60;99.90;;;;;;5054476;28;20957;-78
2023/12/18 10:46:59;;;;;;;3.60;3.40;;;15.90;99.90;;;;;;5052598;28;20455;-78
2023/12/18 10:49:30;;;;;;;4.40;4.10;;;15.50;99.90;;;;;;5056391;28;20451;-77
2023/12/18 10:51:59;;;;;;;4.37;4.07;;;14.70;99.90;;;;;;5057171;28;20456;-78
2023/12/18 10:54:28;;;;;;;4.20;4.00;;;14.20;99.90;;;;;;5053757;28;20476;-78
2023/12/18 10:56:59;;;;;;;4.03;3.83;;;13.70;99.90;;;;;;5053035;28;20517;-78
2023/12/18 10:59:31;;;;;;;4.00;3.80;;;13.40;99.90;;;;;;5051329;28;20538;-77
2023/12/18 11:02:00;;;;;;;3.70;3.50;;;13.30;99.90;;;;;;5053913;28;20448;-78
2023/12/18 11:04:29;;;;;;;4.03;3.73;;;13.20;99.90;;;;;;5054965;28;20974;-78
2023/12/18 11:07:00;;;;;;;4.97;3.50;;;13.10;99.90;;;;;;5054249;28;20460;-77
2023/12/18 11:09:28;;;;;;;3.60;3.40;;;13.20;99.90;;;;;;5052793;28;20458;-77
2023/12/18 11:12:01;;;;;;;3.40;3.30;;;13.30;99.90;;;;;;5054654;28;20452;-77
2023/12/18 11:14:40;;;;;;;3.53;3.33;;;13.50;99.90;;;;;;5057681;28;20459;-79
2023/12/18 11:17:19;;;;;;;3.07;2.97;;;13.70;99.90;;;;;;5049451;28;20466;-78
2023/12/18 11:19:55;;;;;;;3.03;2.93;;;13.60;99.90;;;;;;5051902;28;20466;-78
2023/12/18 11:22:36;;;;;;;2.97;2.83;;;13.80;99.90;;;;;;5057224;28;20472;-77
2023/12/18 11:25:06;;;;;;;3.57;3.27;;;14.10;99.90;;;;;;5051529;28;20471;-78
2023/12/18 11:27:36;;;;;;;4.10;3.70;;;13.70;99.90;;;;;;5043926;28;20463;-77
2023/12/18 11:30:05;;;;;;;4.37;4.10;;;13.60;99.90;;;;;;5051947;28;20454;-78
2023/12/18 11:32:41;;;;;;;4.40;4.13;;;13.40;99.90;;;;;;5055950;28;20479;-77
2023/12/18 11:35:11;;;;;;;5.00;4.70;;;13.20;99.90;;;;;;5051563;28;20504;-77
2023/12/18 11:37:45;;;;;;;4.23;3.93;;;13.10;99.90;;;;;;5053233;28;20455;-78
2023/12/18 11:40:44;;;;;;;3.53;3.33;;;13.10;99.90;;;;;;5056020;28;20458;-78
2023/12/18 11:43:33;;;;;;;3.27;3.17;;;13.00;99.90;;;;;;4963630;28;20480;-78
2023/12/18 11:46:02;;;;;;;3.30;3.20;;;12.90;99.90;;;;;;5047483;28;20511;-80
2023/12/18 11:48:34;;;;;;;3.47;3.27;;;12.90;99.90;;;;;;5053109;28;20466;-77
2023/12/18 11:51:03;;;;;;;2.77;2.67;;;12.90;99.90;;;;;;5055348;28;20452;-76
2023/12/18 11:53:35;;;;;;;3.13;3.03;;;13.00;99.90;;;;;;5055736;28;20480;-78
2023/12/18 11:56:08;;;;;;;3.03;2.83;;;13.00;99.90;;;;;;5050955;28;20973;-76
2023/12/18 11:58:42;;;;;;;3.70;3.50;;;13.00;99.90;;;;;;5051134;28;20458;-78
2023/12/18 12:01:11;;;;;;;3.57;3.37;;;13.00;99.90;;;;;;5051894;28;20532;-77
2023/12/18 12:03:41;;;;;;;3.10;2.90;;;13.10;99.90;;;;;;5052685;28;20480;-78
2023/12/18 12:06:09;;;;;;;3.37;3.23;;;13.10;99.90;;;;;;5053238;28;20993;-77
2023/12/18 12:08:43;;;;;;;3.80;3.60;;;13.10;99.90;;;;;;5054147;28;20459;-78
2023/12/18 12:11:11;;;;;;;4.00;3.50;;;13.10;99.90;;;;;;5055019;28;20863;-77
2023/12/18 12:13:41;;;;;;;3.73;3.53;;;13.20;99.90;;;;;;5051446;28;21100;-78
2023/12/18 12:16:10;;;;;;;4.40;4.10;;;13.20;99.90;;;;;;5047246;28;20455;-77
2023/12/18 12:18:46;;;;;;;3.40;3.20;;;13.20;99.90;;;;;;5049025;28;20573;-76
2023/12/18 12:21:16;;;;;;;4.03;3.80;;;13.00;99.90;;;;;;5048662;28;20459;-77
2023/12/18 12:23:47;;;;;;;4.30;3.50;;;13.00;99.90;;;;;;5053351;28;20816;-77
2023/12/18 12:26:16;;;;;;;3.40;3.20;;;13.00;99.90;;;;;;5054073;28;20935;-78
2023/12/18 12:28:47;;;;;;;4.10;3.80;;;13.10;99.90;;;;;;5049704;28;20563;-77
2023/12/18 12:31:17;;;;;;;4.70;3.97;;;13.20;99.90;;;;;;5054732;28;20489;-78
2023/12/18 12:33:48;;;;;;;3.73;3.53;;;13.20;99.90;;;;;;5048207;28;20927;-78
2023/12/18 12:36:20;;;;;;;4.37;4.17;;;13.20;99.90;;;;;;5052100;28;20972;-77
2023/12/18 12:38:49;;;;;;;4.73;4.53;;;13.20;99.90;;;;;;5053039;28;20454;-77
2023/12/18 12:41:18;;;;;;;4.40;4.20;;;13.20;99.90;;;;;;5049555;28;20443;-77
2023/12/18 12:43:49;;;;;;;4.40;4.20;;;13.20;99.90;;;;;;5047782;28;20476;-78
2023/12/18 12:46:17;;;;;;;4.87;4.50;;;13.30;99.90;;;;;;5050491;28;20483;-77
2023/12/18 12:48:56;;;;;;;4.40;4.20;;;13.20;99.90;;;;;;5035884;28;20567;-78
2023/12/18 12:51:25;;;;;;;7.20;4.10;;;13.30;99.90;;;;;;5030107;28;20457;-78
2023/12/18 12:53:53;;;;;;;4.63;4.40;;;13.30;99.90;;;;;;5041192;28;20466;-78
2023/12/18 12:56:21;;;;;;;4.30;4.10;;;13.40;99.90;;;;;;5045814;28;20500;-77
2023/12/18 12:58:51;;;;;;;3.87;3.67;;;13.30;99.90;;;;;;5050238;28;20463;-77
2023/12/18 13:01:19;;;;;;;4.90;4.40;;;13.30;99.90;;;;;;5062662;28;20738;-78
2023/12/18 13:03:50;;;;;;;4.60;4.30;;;13.40;99.90;;;;;;5050823;28;20471;-78
2023/12/18 13:06:20;;;;;;;3.33;3.23;;;13.30;99.90;;;;;;5054058;28;20493;-78
2023/12/18 13:08:48;;;;;;;3.60;3.50;;;13.40;99.90;;;;;;5048535;28;20455;-77
2023/12/18 13:11:18;;;;;;;4.43;4.20;;;13.30;99.90;;;;;;5052910;28;20543;-78